createdAt,value
2022-10-04T00:00:09.014Z,7.90
2022-10-04T00:02:36.429Z,7.90
2022-10-04T00:05:08.148Z,7.90
2022-10-04T00:07:37.644Z,7.90
2022-10-04T00:10:16.039Z,7.90
2022-10-04T00:12:49.124Z,7.90
2022-10-04T00:15:20.323Z,7.90
2022-10-04T00:18:00.212Z,7.80
2022-10-04T00:20:45.839Z,7.90
2022-10-04T00:23:24.214Z,7.80
2022-10-04T00:25:52.293Z,7.80
2022-10-04T00:28:22.231Z,7.80
2022-10-04T00:31:07.814Z,7.80
2022-10-04T00:33:37.970Z,7.80
2022-10-04T00:36:23.923Z,7.70
2022-10-04T00:39:09.266Z,7.80
2022-10-04T00:41:42.357Z,7.70
2022-10-04T00:44:15.671Z,7.70
2022-10-04T00:46:43.276Z,7.70
2022-10-04T00:49:10.723Z,7.70
2022-10-04T00:51:46.900Z,7.70
2022-10-04T00:54:29.300Z,7.70
2022-10-04T00:56:58.070Z,7.60
2022-10-04T00:59:38.824Z,7.60
2022-10-04T01:02:05.848Z,7.60
2022-10-04T01:04:36.148Z,7.60
2022-10-04T01:07:03.921Z,7.50
2022-10-04T01:09:33.853Z,7.50
2022-10-04T01:12:06.348Z,7.60
2022-10-04T01:14:45.788Z,7.40
2022-10-04T01:17:12.757Z,7.50
2022-10-04T01:19:49.749Z,7.50
2022-10-04T01:22:36.856Z,7.40
2022-10-04T01:25:04.501Z,7.40
2022-10-04T01:27:33.370Z,7.40
2022-10-04T01:30:01.029Z,7.40
2022-10-04T01:32:27.944Z,7.40
2022-10-04T01:34:55.948Z,7.30
2022-10-04T01:37:23.003Z,7.40
2022-10-04T01:39:50.219Z,7.40
2022-10-04T01:42:17.084Z,7.30
2022-10-04T01:44:55.529Z,7.30
2022-10-04T01:47:40.764Z,7.30
2022-10-04T01:50:16.157Z,7.30
2022-10-04T01:52:45.831Z,7.20
2022-10-04T01:55:14.871Z,7.30
2022-10-04T01:57:50.704Z,7.20
2022-10-04T02:00:17.716Z,7.20
2022-10-04T02:02:51.499Z,7.20
2022-10-04T02:05:24.338Z,7.10
2022-10-04T02:07:51.318Z,7.10
2022-10-04T02:10:20.280Z,7.10
2022-10-04T02:12:48.366Z,7.10
2022-10-04T02:15:15.722Z,7.00
2022-10-04T02:17:43.711Z,7.00
2022-10-04T02:20:15.764Z,7.10
2022-10-04T02:22:43.573Z,7.10
2022-10-04T02:25:10.787Z,7.10
2022-10-04T02:27:37.613Z,7.10
2022-10-04T02:30:07.542Z,7.00
2022-10-04T02:32:53.396Z,7.00
2022-10-04T02:35:20.611Z,7.00
2022-10-04T02:37:49.396Z,7.00
2022-10-04T02:40:18.025Z,7.00
2022-10-04T02:42:50.234Z,6.90
2022-10-04T02:45:17.060Z,7.00
2022-10-04T02:47:48.853Z,6.90
2022-10-04T02:50:28.502Z,6.90
2022-10-04T02:52:58.635Z,6.90
2022-10-04T02:55:30.284Z,6.90
2022-10-04T02:57:58.584Z,6.90
2022-10-04T03:00:27.483Z,6.90
2022-10-04T03:03:18.336Z,6.80
2022-10-04T03:05:47.372Z,6.90
2022-10-04T03:08:14.545Z,6.90
2022-10-04T03:10:42.721Z,6.80
2022-10-04T03:13:10.001Z,6.80
2022-10-04T03:15:37.898Z,6.80
2022-10-04T03:18:05.025Z,6.80
2022-10-04T03:20:32.331Z,6.80
2022-10-04T03:22:59.233Z,6.80
2022-10-04T03:25:30.912Z,6.80
2022-10-04T03:28:02.210Z,6.80
2022-10-04T03:30:30.041Z,6.80
2022-10-04T03:32:56.939Z,6.80
2022-10-04T03:35:32.383Z,6.90
2022-10-04T03:37:59.936Z,6.80
2022-10-04T03:40:29.587Z,6.90
2022-10-04T03:42:58.034Z,6.90
2022-10-04T03:45:25.628Z,6.80
2022-10-04T03:47:53.371Z,6.80
2022-10-04T03:50:24.969Z,6.80
2022-10-04T03:52:54.796Z,6.70
2022-10-04T03:55:24.013Z,6.80
2022-10-04T03:57:52.211Z,6.80
2022-10-04T04:00:19.666Z,6.80
2022-10-04T04:02:55.989Z,6.80
2022-10-04T04:05:26.004Z,6.80
2022-10-04T04:08:02.054Z,6.80
2022-10-04T04:10:31.366Z,6.80
2022-10-04T04:13:24.271Z,6.80
2022-10-04T04:15:51.685Z,6.70
2022-10-04T04:18:29.734Z,6.60
2022-10-04T04:20:59.758Z,6.50
2022-10-04T04:23:29.200Z,6.40
2022-10-04T04:26:00.264Z,6.40
2022-10-04T04:28:32.917Z,6.30
2022-10-04T04:31:06.533Z,6.20
2022-10-04T04:33:36.680Z,6.10
2022-10-04T04:36:05.070Z,6.20
2022-10-04T04:38:32.775Z,6.20
2022-10-04T04:41:08.690Z,6.10
2022-10-04T04:43:36.102Z,6.00
2022-10-04T04:46:26.071Z,6.00
2022-10-04T04:48:52.693Z,5.90
2022-10-04T04:51:21.148Z,6.00
2022-10-04T04:53:48.760Z,5.90
2022-10-04T04:56:19.433Z,5.80
2022-10-04T04:58:47.332Z,5.80
2022-10-04T05:01:17.181Z,5.70
2022-10-04T05:03:44.171Z,5.70
2022-10-04T05:06:27.670Z,5.70
2022-10-04T05:08:55.213Z,5.70
2022-10-04T05:11:24.160Z,5.70
2022-10-04T05:13:53.689Z,5.70
2022-10-04T05:16:36.958Z,5.70
2022-10-04T05:19:08.967Z,5.70
2022-10-04T05:21:40.801Z,5.70
2022-10-04T05:24:11.904Z,5.70
2022-10-04T05:26:39.063Z,5.70
2022-10-04T05:29:11.593Z,5.70
2022-10-04T05:31:44.645Z,5.70
2022-10-04T05:34:38.002Z,5.70
2022-10-04T05:37:23.696Z,5.70
2022-10-04T05:39:58.908Z,5.60
2022-10-04T05:42:32.971Z,5.60
2022-10-04T05:45:01.498Z,5.60
2022-10-04T05:47:30.485Z,5.70
2022-10-04T05:49:58.947Z,5.60
2022-10-04T05:52:25.946Z,5.70
2022-10-04T05:55:11.374Z,5.70
2022-10-04T05:57:46.132Z,5.70
2022-10-04T06:00:17.844Z,5.70
2022-10-04T06:02:55.004Z,5.70
2022-10-04T06:05:29.143Z,5.70
2022-10-04T06:08:19.239Z,5.80
2022-10-04T06:10:57.898Z,5.80
2022-10-04T06:13:30.148Z,5.80
2022-10-04T06:16:15.538Z,6.00
2022-10-04T06:19:01.118Z,6.00
2022-10-04T06:21:28.717Z,6.00
2022-10-04T06:23:55.537Z,6.10
2022-10-04T06:26:25.826Z,6.00
2022-10-04T06:28:55.231Z,6.10
2022-10-04T06:31:25.114Z,6.10
2022-10-04T06:33:51.880Z,6.20
2022-10-04T06:36:18.674Z,6.30
2022-10-04T06:38:59.074Z,6.30
2022-10-04T06:41:34.662Z,6.30
2022-10-04T06:44:16.563Z,6.40
2022-10-04T06:46:48.166Z,6.40
2022-10-04T06:49:27.172Z,6.40
2022-10-04T06:52:19.517Z,6.50
2022-10-04T06:54:58.617Z,6.60
2022-10-04T06:57:43.848Z,6.60
2022-10-04T07:00:20.148Z,6.60
2022-10-04T07:02:50.342Z,6.70
2022-10-04T07:05:30.732Z,6.70
2022-10-04T07:08:07.355Z,6.80
2022-10-04T07:10:47.270Z,6.90
2022-10-04T07:13:22.755Z,7.00
2022-10-04T07:15:57.198Z,7.00
2022-10-04T07:18:27.933Z,7.10
2022-10-04T07:21:00.741Z,7.20
2022-10-04T07:23:30.196Z,7.40
2022-10-04T07:26:04.502Z,7.50
2022-10-04T07:28:52.112Z,7.70
2022-10-04T07:31:23.356Z,7.80
2022-10-04T07:33:51.885Z,8.00
2022-10-04T07:36:24.680Z,8.10
2022-10-04T07:38:55.131Z,8.10
2022-10-04T07:41:24.761Z,8.30
2022-10-04T07:44:13.186Z,8.30
2022-10-04T07:46:44.871Z,8.50
2022-10-04T07:49:15.874Z,8.60
2022-10-04T07:51:43.590Z,8.70
2022-10-04T07:54:13.879Z,8.70
2022-10-04T07:56:43.158Z,8.80
2022-10-04T07:59:26.432Z,8.90
2022-10-04T08:01:56.077Z,8.80
2022-10-04T08:04:41.659Z,8.90
2022-10-04T08:07:14.399Z,9.00
2022-10-04T08:09:41.229Z,9.10
2022-10-04T08:12:20.138Z,9.20
2022-10-04T08:14:53.182Z,9.30
2022-10-04T08:17:41.915Z,9.40
2022-10-04T08:20:29.076Z,9.40
2022-10-04T08:22:55.897Z,9.40
2022-10-04T08:25:43.011Z,9.50
2022-10-04T08:28:51.060Z,9.60
2022-10-04T08:31:24.948Z,9.60
2022-10-04T08:33:56.092Z,9.70
2022-10-04T08:36:29.006Z,9.80
2022-10-04T08:39:00.190Z,9.90
2022-10-04T08:41:42.987Z,10.00
2022-10-04T08:44:28.092Z,10.10
2022-10-04T08:46:55.728Z,10.20
2022-10-04T08:49:41.315Z,10.20
2022-10-04T08:52:20.352Z,10.40
2022-10-04T08:54:50.287Z,10.40
2022-10-04T08:57:19.893Z,10.40
2022-10-04T09:00:06.064Z,10.50
2022-10-04T09:02:51.692Z,10.50
2022-10-04T09:05:37.101Z,10.50
2022-10-04T09:08:22.398Z,10.60
2022-10-04T09:11:01.466Z,10.70
2022-10-04T09:13:31.417Z,10.80
2022-10-04T09:16:04.277Z,10.90
2022-10-04T09:18:43.030Z,11.00
2022-10-04T09:21:10.899Z,11.10
2022-10-04T09:23:56.534Z,11.20
2022-10-04T09:26:24.561Z,11.40
2022-10-04T09:29:10.360Z,11.60
2022-10-04T09:31:37.483Z,11.70
2022-10-04T09:34:17.577Z,11.90
2022-10-04T09:36:58.367Z,11.90
2022-10-04T09:39:43.212Z,12.00
2022-10-04T09:42:17.570Z,12.00
2022-10-04T09:44:46.651Z,12.10
2022-10-04T09:47:22.312Z,12.20
2022-10-04T09:50:07.889Z,12.30
2022-10-04T09:52:37.506Z,12.30
2022-10-04T09:55:16.438Z,12.40
2022-10-04T09:58:03.336Z,12.40
2022-10-04T10:00:36.056Z,12.50
2022-10-04T10:03:17.408Z,12.40
2022-10-04T10:05:44.307Z,12.50
2022-10-04T10:08:17.438Z,12.70
2022-10-04T10:11:09.231Z,12.70
2022-10-04T10:13:54.723Z,12.80
2022-10-04T10:16:27.210Z,12.90
2022-10-04T10:19:19.886Z,12.90
2022-10-04T10:22:02.025Z,13.00
2022-10-04T10:24:47.570Z,13.10
2022-10-04T10:27:26.512Z,13.20
2022-10-04T10:30:12.043Z,13.20
2022-10-04T10:32:45.069Z,13.40
2022-10-04T10:35:24.699Z,13.40
2022-10-04T10:38:04.798Z,13.40
2022-10-04T10:40:31.866Z,13.40
2022-10-04T10:43:08.239Z,13.40
2022-10-04T10:45:35.120Z,13.40
2022-10-04T10:48:20.713Z,13.50
2022-10-04T10:51:00.009Z,13.40
2022-10-04T10:53:47.134Z,13.50
2022-10-04T10:56:32.610Z,13.50
2022-10-04T10:58:59.673Z,13.50
2022-10-04T11:01:29.654Z,13.60
2022-10-04T11:04:14.899Z,13.60
2022-10-04T11:07:00.803Z,13.80
2022-10-04T11:09:27.656Z,13.90
2022-10-04T11:12:00.346Z,14.00
2022-10-04T11:14:27.147Z,13.90
2022-10-04T11:17:09.747Z,14.00
2022-10-04T11:19:39.598Z,14.00
2022-10-04T11:22:16.569Z,14.10
2022-10-04T11:24:53.679Z,14.20
2022-10-04T11:27:35.467Z,14.40
2022-10-04T11:30:14.319Z,14.40
2022-10-04T11:32:41.167Z,14.40
2022-10-04T11:35:07.951Z,14.40
2022-10-04T11:37:47.471Z,14.50
2022-10-04T11:40:33.027Z,14.50
2022-10-04T11:43:08.140Z,14.40
2022-10-04T11:45:36.368Z,14.50
2022-10-04T11:48:23.761Z,14.60
2022-10-04T11:51:11.158Z,14.60
2022-10-04T11:53:43.829Z,14.70
2022-10-04T11:56:29.783Z,14.80
2022-10-04T11:59:06.827Z,14.90
2022-10-04T12:01:52.452Z,15.00
2022-10-04T12:04:41.389Z,15.10
2022-10-04T12:07:28.753Z,15.00
2022-10-04T12:10:11.307Z,15.10
2022-10-04T12:12:47.436Z,15.20
2022-10-04T12:15:23.492Z,15.30
2022-10-04T12:18:06.444Z,15.30
2022-10-04T12:20:40.199Z,15.20
2022-10-04T12:23:20.562Z,15.30
2022-10-04T12:25:47.289Z,15.30
2022-10-04T12:28:21.149Z,15.40
2022-10-04T12:30:51.068Z,15.40
2022-10-04T12:33:21.108Z,15.50
2022-10-04T12:35:48.076Z,15.40
2022-10-04T12:38:17.906Z,15.40
2022-10-04T12:41:03.212Z,15.30
2022-10-04T12:43:32.719Z,15.30
2022-10-04T12:46:08.291Z,15.40
2022-10-04T12:49:01.580Z,15.50
2022-10-04T12:51:38.076Z,15.60
2022-10-04T12:54:18.294Z,15.60
2022-10-04T12:56:54.157Z,15.60
2022-10-04T12:59:42.271Z,15.60
2022-10-04T13:02:09.162Z,15.70
2022-10-04T13:04:50.429Z,15.60
2022-10-04T13:07:20.095Z,15.70
2022-10-04T13:10:05.435Z,15.80
2022-10-04T13:12:52.922Z,15.80
2022-10-04T13:15:25.671Z,15.80
2022-10-04T13:17:58.513Z,15.80
2022-10-04T13:20:26.158Z,15.70
2022-10-04T13:22:57.298Z,15.60
2022-10-04T13:25:45.322Z,15.60
2022-10-04T13:28:32.154Z,15.60
2022-10-04T13:31:05.494Z,15.60
2022-10-04T13:33:46.695Z,15.50
2022-10-04T13:36:13.734Z,15.50
2022-10-04T13:38:52.508Z,15.60
2022-10-04T13:41:33.095Z,15.70
2022-10-04T13:44:03.062Z,15.60
2022-10-04T13:46:39.298Z,15.60
2022-10-04T13:49:15.435Z,15.50
2022-10-04T13:51:42.521Z,15.60
2022-10-04T13:54:37.466Z,15.50
2022-10-04T13:57:10.110Z,15.50
2022-10-04T13:59:42.898Z,15.40
2022-10-04T14:02:16.271Z,15.40
2022-10-04T14:05:01.249Z,15.50
2022-10-04T14:07:28.627Z,15.50
2022-10-04T14:10:17.271Z,15.40
2022-10-04T14:12:49.978Z,15.40
2022-10-04T14:15:34.937Z,15.40
2022-10-04T14:18:21.291Z,15.30
2022-10-04T14:20:59.911Z,15.20
2022-10-04T14:23:39.051Z,15.20
2022-10-04T14:26:08.843Z,15.10
2022-10-04T14:28:39.026Z,15.10
2022-10-04T14:31:21.311Z,15.10
2022-10-04T14:34:07.202Z,15.00
2022-10-04T14:36:41.095Z,15.00
2022-10-04T14:39:08.147Z,15.00
2022-10-04T14:41:39.388Z,15.00
2022-10-04T14:44:06.314Z,14.90
2022-10-04T14:46:42.449Z,14.90
2022-10-04T14:49:26.930Z,14.90
2022-10-04T14:52:14.481Z,14.90
2022-10-04T14:54:55.416Z,14.90
2022-10-04T14:57:37.979Z,14.90
2022-10-04T15:00:19.234Z,14.90
2022-10-04T15:02:59.522Z,14.90
2022-10-04T15:05:39.045Z,14.80
2022-10-04T15:08:21.366Z,14.80
2022-10-04T15:10:50.012Z,14.80
2022-10-04T15:13:16.867Z,14.80
2022-10-04T15:15:43.757Z,14.80
2022-10-04T15:18:26.552Z,14.80
2022-10-04T15:20:59.395Z,14.80
2022-10-04T15:23:32.255Z,14.70
2022-10-04T15:26:05.981Z,14.70
2022-10-04T15:28:54.277Z,14.70
2022-10-04T15:31:36.569Z,14.70
2022-10-04T15:34:25.427Z,14.60
2022-10-04T15:37:01.953Z,14.60
2022-10-04T15:39:47.640Z,14.60
2022-10-04T15:42:14.674Z,14.50
2022-10-04T15:45:00.144Z,14.50
2022-10-04T15:47:32.135Z,14.50
2022-10-04T15:50:31.379Z,14.50
2022-10-04T15:53:27.258Z,14.50
2022-10-04T15:55:55.221Z,14.40
2022-10-04T15:58:42.135Z,14.40
2022-10-04T16:01:14.835Z,14.40
2022-10-04T16:04:10.092Z,14.30
2022-10-04T16:06:47.390Z,14.30
2022-10-04T16:09:27.001Z,14.30
2022-10-04T16:11:57.910Z,14.20
2022-10-04T16:14:27.507Z,14.10
2022-10-04T16:17:14.565Z,14.10
2022-10-04T16:19:44.214Z,14.10
2022-10-04T16:22:33.282Z,14.10
2022-10-04T16:25:06.074Z,14.10
2022-10-04T16:27:48.308Z,14.00
2022-10-04T16:30:27.890Z,13.90
2022-10-04T16:33:06.401Z,13.80
2022-10-04T16:35:45.772Z,13.80
2022-10-04T16:38:12.654Z,13.80
2022-10-04T16:40:51.674Z,13.80
2022-10-04T16:43:18.638Z,13.70
2022-10-04T16:46:04.493Z,13.70
2022-10-04T16:48:34.848Z,13.70
2022-10-04T16:51:04.671Z,13.70
2022-10-04T16:53:34.341Z,13.60
2022-10-04T16:56:24.636Z,13.60
2022-10-04T16:58:54.731Z,13.60
2022-10-04T17:01:21.852Z,13.50
2022-10-04T17:04:12.281Z,13.50
2022-10-04T17:06:56.205Z,13.50
2022-10-04T17:09:32.083Z,13.50
2022-10-04T17:12:17.394Z,13.50
2022-10-04T17:14:46.497Z,13.40
2022-10-04T17:17:22.281Z,13.50
2022-10-04T17:19:53.129Z,13.40
2022-10-04T17:22:43.009Z,13.40
2022-10-04T17:25:21.995Z,13.40
2022-10-04T17:27:53.463Z,13.40
2022-10-04T17:30:23.605Z,13.40
2022-10-04T17:33:09.352Z,13.40
2022-10-04T17:35:54.780Z,13.30
2022-10-04T17:38:21.713Z,13.30
2022-10-04T17:40:48.611Z,13.20
2022-10-04T17:43:27.805Z,13.20
2022-10-04T17:46:03.548Z,13.20
2022-10-04T17:48:50.248Z,13.20
2022-10-04T17:51:41.655Z,13.20
2022-10-04T17:54:35.268Z,13.20
2022-10-04T17:57:04.825Z,13.20
2022-10-04T17:59:38.823Z,13.20
2022-10-04T18:02:28.129Z,13.20
2022-10-04T18:04:57.455Z,13.20
2022-10-04T18:07:24.231Z,13.20
2022-10-04T18:09:52.802Z,13.10
2022-10-04T18:12:49.056Z,13.10
2022-10-04T18:15:22.602Z,13.10
2022-10-04T18:17:49.977Z,13.10
2022-10-04T18:20:27.753Z,13.10
2022-10-04T18:22:59.428Z,13.10
2022-10-04T18:25:27.790Z,13.10
2022-10-04T18:28:11.895Z,13.10
2022-10-04T18:30:54.152Z,13.10
2022-10-04T18:33:26.168Z,13.10
2022-10-04T18:35:55.255Z,13.00
2022-10-04T18:38:28.557Z,13.00
2022-10-04T18:40:56.548Z,13.00
2022-10-04T18:43:27.312Z,13.00
2022-10-04T18:46:01.487Z,12.90
2022-10-04T18:48:39.008Z,12.80
2022-10-04T18:51:35.198Z,12.80
2022-10-04T18:54:08.725Z,12.80
2022-10-04T18:56:40.913Z,12.80
2022-10-04T18:59:34.461Z,12.80
2022-10-04T19:02:12.494Z,12.80
2022-10-04T19:04:39.349Z,12.80
2022-10-04T19:07:14.763Z,12.90
2022-10-04T19:09:48.860Z,12.90
2022-10-04T19:12:27.152Z,12.80
2022-10-04T19:14:53.942Z,12.80
2022-10-04T19:17:28.463Z,12.80
2022-10-04T19:20:03.631Z,12.80
2022-10-04T19:23:00.090Z,12.80
2022-10-04T19:25:39.301Z,12.80
2022-10-04T19:28:06.474Z,12.80
2022-10-04T19:30:51.779Z,12.70
2022-10-04T19:33:37.281Z,12.70
2022-10-04T19:36:07.189Z,12.70
2022-10-04T19:38:39.630Z,12.70
2022-10-04T19:41:25.894Z,12.70
2022-10-04T19:44:13.604Z,12.70
2022-10-04T19:46:44.835Z,12.70
2022-10-04T19:49:21.566Z,12.70
2022-10-04T19:51:51.895Z,12.60
2022-10-04T19:54:22.614Z,12.70
2022-10-04T19:56:50.714Z,12.70
2022-10-04T19:59:21.975Z,12.70
2022-10-04T20:01:53.538Z,12.70
2022-10-04T20:04:36.060Z,12.70
2022-10-04T20:07:04.983Z,12.70
2022-10-04T20:09:37.893Z,12.70
2022-10-04T20:12:05.979Z,12.60
2022-10-04T20:14:33.360Z,12.60
2022-10-04T20:17:03.355Z,12.60
2022-10-04T20:19:30.774Z,12.60
2022-10-04T20:22:13.018Z,12.60
2022-10-04T20:24:40.409Z,12.60
2022-10-04T20:27:28.616Z,12.50
2022-10-04T20:29:57.485Z,12.50
2022-10-04T20:32:27.462Z,12.50
2022-10-04T20:34:55.949Z,12.50
2022-10-04T20:37:43.011Z,12.40
2022-10-04T20:40:10.355Z,12.40
2022-10-04T20:42:38.883Z,12.40
2022-10-04T20:45:18.033Z,12.40
2022-10-04T20:47:58.373Z,12.50
2022-10-04T20:50:28.928Z,12.50
2022-10-04T20:52:58.935Z,12.50
2022-10-04T20:55:28.826Z,12.50
2022-10-04T20:58:03.636Z,12.50
2022-10-04T21:00:34.103Z,12.40
2022-10-04T21:03:27.409Z,12.50
2022-10-04T21:06:05.362Z,12.50
2022-10-04T21:08:32.701Z,12.50
2022-10-04T21:11:08.602Z,12.50
2022-10-04T21:13:44.529Z,12.50
2022-10-04T21:16:11.717Z,12.50
2022-10-04T21:18:38.654Z,12.50
2022-10-04T21:21:05.550Z,12.50
2022-10-04T21:23:33.910Z,12.40
2022-10-04T21:26:22.815Z,12.40
2022-10-04T21:28:57.246Z,12.50
2022-10-04T21:31:24.657Z,12.50
2022-10-04T21:33:51.739Z,12.50
2022-10-04T21:36:18.700Z,12.50
2022-10-04T21:38:45.589Z,12.50
2022-10-04T21:41:12.406Z,12.50
2022-10-04T21:43:39.339Z,12.50
2022-10-04T21:46:06.514Z,12.50
2022-10-04T21:48:33.555Z,12.50
2022-10-04T21:51:00.512Z,12.50
2022-10-04T21:53:27.394Z,12.40
2022-10-04T21:55:54.575Z,12.40
2022-10-04T21:58:21.376Z,12.40
2022-10-04T22:00:48.280Z,12.40
2022-10-04T22:03:15.090Z,12.40
2022-10-04T22:05:42.040Z,12.40
2022-10-04T22:08:08.896Z,12.40
2022-10-04T22:10:35.934Z,12.30
2022-10-04T22:13:02.777Z,12.40
2022-10-04T22:15:29.684Z,12.40
2022-10-04T22:17:56.740Z,12.40
2022-10-04T22:20:24.682Z,12.30
2022-10-04T22:22:51.761Z,12.30
2022-10-04T22:25:20.169Z,12.30
2022-10-04T22:27:47.564Z,12.40
2022-10-04T22:30:27.980Z,12.30
2022-10-04T22:32:56.404Z,12.30
2022-10-04T22:35:23.383Z,12.30
2022-10-04T22:37:50.314Z,12.30
2022-10-04T22:40:20.647Z,12.30
2022-10-04T22:42:50.593Z,12.30
2022-10-04T22:45:27.381Z,12.30
2022-10-04T22:47:55.800Z,12.30
2022-10-04T22:50:28.860Z,12.30
2022-10-04T22:52:55.784Z,12.20
2022-10-04T22:55:22.804Z,12.20
2022-10-04T22:57:49.868Z,12.20
2022-10-04T23:00:16.651Z,12.10
2022-10-04T23:02:43.679Z,12.10
2022-10-04T23:05:17.981Z,12.20
2022-10-04T23:07:45.767Z,12.10
2022-10-04T23:10:13.551Z,12.10
2022-10-04T23:12:41.045Z,12.10
2022-10-04T23:15:08.166Z,12.10
2022-10-04T23:17:36.749Z,12.10
2022-10-04T23:20:14.756Z,12.20
2022-10-04T23:22:45.431Z,12.20
2022-10-04T23:25:13.743Z,12.20
2022-10-04T23:27:41.118Z,12.10
2022-10-04T23:30:13.763Z,12.20
2022-10-04T23:32:40.710Z,12.20
2022-10-04T23:35:13.922Z,12.20
2022-10-04T23:37:40.873Z,12.20
2022-10-04T23:40:11.922Z,12.20
2022-10-04T23:42:38.970Z,12.20
2022-10-04T23:45:12.352Z,12.10
2022-10-04T23:47:39.207Z,12.10
2022-10-04T23:50:35.150Z,12.10
2022-10-04T23:53:04.690Z,12.10
2022-10-04T23:55:36.285Z,12.10
2022-10-04T23:58:10.048Z,12.10
